Time,TemperatureF,DewpointF,PressureIn,WindDirection,WindDirectionDegrees,WindSpeedMPH,WindSpeedGustMPH,Humidity,HourlyPrecipIn,Conditions,Clouds,dailyrainin,SoftwareType,DateUTC
2013-06-01 00:01:00,52.0,49.0,30.27,NE,48,0.0,5.0,90,0.00,,,0.00,,2013-06-01 07:01:00,
2013-06-01 00:11:00,52.0,49.0,30.27,NE,48,0.0,5.0,90,0.00,,,0.00,,2013-06-01 07:11:00,
2013-06-01 00:21:00,51.0,48.0,30.27,East,79,0.0,4.0,91,0.00,,,0.00,,2013-06-01 07:21:00,
2013-06-01 00:31:00,51.0,48.0,30.27,ESE,102,3.0,5.0,90,0.00,,,0.00,,2013-06-01 07:31:00,
2013-06-01 00:42:00,50.0,47.0,30.27,East,101,2.0,4.0,91,0.00,,,0.00,,2013-06-01 07:42:00,
2013-06-01 00:52:00,50.0,47.0,30.27,East,101,2.0,4.0,91,0.00,,,0.00,,2013-06-01 07:52:00,
2013-06-01 01:02:00,50.0,47.0,30.27,East,95,1.0,4.0,91,0.00,,,0.00,,2013-06-01 08:02:00,
2013-06-01 01:11:00,50.0,47.0,30.27,East,95,1.0,4.0,91,0.00,,,0.00,,2013-06-01 08:11:00,
2013-06-01 01:21:00,50.0,47.0,30.27,East,95,0.0,2.0,91,0.00,,,0.00,,2013-06-01 08:21:00,
2013-06-01 01:32:00,49.0,46.0,30.27,East,95,0.0,2.0,91,0.00,,,0.00,,2013-06-01 08:32:00,
2013-06-01 01:42:00,49.0,46.0,30.27,East,95,0.0,0.0,91,0.00,,,0.00,,2013-06-01 08:42:00,
2013-06-01 01:51:00,49.0,46.0,30.27,East,95,0.0,0.0,91,0.00,,,0.00,,2013-06-01 08:51:00,
2013-06-01 02:01:00,49.0,46.0,30.27,East,95,1.0,2.0,91,0.00,,,0.00,,2013-06-01 09:01:00,
2013-06-01 02:12:00,49.0,46.0,30.27,East,95,1.0,2.0,91,0.00,,,0.00,,2013-06-01 09:12:00,
2013-06-01 02:21:00,48.0,45.0,30.27,East,95,0.0,0.0,91,0.00,,,0.00,,2013-06-01 09:21:00,
2013-06-01 02:33:00,48.0,46.0,30.26,East,86,0.0,3.0,92,0.00,,,0.00,,2013-06-01 09:33:00,
2013-06-01 02:42:00,48.0,46.0,30.26,East,86,0.0,3.0,92,0.00,,,0.00,,2013-06-01 09:42:00,
2013-06-01 02:53:00,49.0,47.0,30.27,NE,48,2.0,5.0,92,0.00,,,0.00,,2013-06-01 09:53:00,
2013-06-01 03:02:00,51.0,49.0,30.26,NE,38,3.0,7.0,93,0.00,,,0.00,,2013-06-01 10:02:00,
2013-06-01 03:12:00,51.0,49.0,30.26,NE,38,3.0,7.0,93,0.00,,,0.00,,2013-06-01 10:12:00,
2013-06-01 03:22:00,52.0,50.0,30.26,NE,36,4.0,8.0,93,0.00,,,0.00,,2013-06-01 10:22:00,
2013-06-01 03:32:00,52.0,50.0,30.26,NE,43,4.0,8.0,93,0.00,,,0.00,,2013-06-01 10:32:00,
2013-06-01 03:42:00,52.0,50.0,30.26,NE,43,4.0,8.0,93,0.00,,,0.00,,2013-06-01 10:42:00,
2013-06-01 03:52:00,52.0,50.0,30.25,ENE,60,6.0,10.0,93,0.00,,,0.00,,2013-06-01 10:52:00,
2013-06-01 04:02:00,52.0,50.0,30.25,ENE,57,6.0,12.0,93,0.00,,,0.00,,2013-06-01 11:02:00,
2013-06-01 04:11:00,52.0,50.0,30.25,ENE,57,6.0,12.0,93,0.00,,,0.00,,2013-06-01 11:11:00,
2013-06-01 04:21:00,51.0,49.0,30.24,ENE,78,4.0,9.0,93,0.00,,,0.00,,2013-06-01 11:21:00,
2013-06-01 04:32:00,51.0,49.0,30.24,NE,43,1.0,7.0,93,0.00,,,0.00,,2013-06-01 11:32:00,
2013-06-01 04:42:00,51.0,49.0,30.24,NE,43,1.0,7.0,93,0.00,,,0.00,,2013-06-01 11:42:00,
2013-06-01 04:52:00,50.0,48.0,30.24,ENE,73,1.0,6.0,92,0.00,,,0.00,,2013-06-01 11:52:00,
2013-06-01 05:01:00,49.0,47.0,30.24,ESE,108,6.0,10.0,93,0.00,,,0.00,,2013-06-01 12:01:00,
2013-06-01 05:11:00,49.0,47.0,30.24,ESE,108,6.0,10.0,93,0.00,,,0.00,,2013-06-01 12:11:00,
2013-06-01 05:21:00,50.0,48.0,30.24,ESE,108,6.0,10.0,93,0.00,,,0.00,,2013-06-01 12:21:00,
2013-06-01 05:32:00,50.0,48.0,30.24,East,90,2.0,6.0,93,0.00,,,0.00,,2013-06-01 12:32:00,
2013-06-01 05:41:00,50.0,48.0,30.24,East,90,2.0,6.0,93,0.00,,,0.00,,2013-06-01 12:41:00,
2013-06-01 05:52:00,50.0,48.0,30.24,East,91,2.0,5.0,93,0.00,,,0.00,,2013-06-01 12:52:00,
2013-06-01 06:01:00,50.0,48.0,30.22,East,88,4.0,11.0,93,0.00,,,0.00,,2013-06-01 13:01:00,
2013-06-01 06:11:00,50.0,48.0,30.22,East,88,4.0,11.0,93,0.00,,,0.00,,2013-06-01 13:11:00,
2013-06-01 06:22:00,50.0,48.0,30.23,SSW,195,1.0,3.0,93,0.00,,,0.00,,2013-06-01 13:22:00,
2013-06-01 06:32:00,50.0,48.0,30.23,SE,146,0.0,7.0,93,0.00,,,0.00,,2013-06-01 13:32:00,
2013-06-01 06:42:00,50.0,48.0,30.23,SE,146,0.0,7.0,93,0.00,,,0.00,,2013-06-01 13:42:00,
2013-06-01 06:52:00,49.0,47.0,30.23,ESE,108,2.0,6.0,92,0.00,,,0.00,,2013-06-01 13:52:00,
2013-06-01 07:02:00,49.0,47.0,30.23,East,79,5.0,7.0,93,0.00,,,0.00,,2013-06-01 14:02:00,
2013-06-01 07:11:00,49.0,47.0,30.23,East,79,5.0,7.0,93,0.00,,,0.00,,2013-06-01 14:11:00,
2013-06-01 07:21:00,50.0,48.0,30.23,ENE,72,1.0,7.0,93,0.00,,,0.00,,2013-06-01 14:21:00,
2013-06-01 07:32:00,51.0,49.0,30.23,ENE,77,3.0,6.0,93,0.00,,,0.00,,2013-06-01 14:32:00,
2013-06-01 07:42:00,51.0,49.0,30.23,ENE,77,3.0,6.0,93,0.00,,,0.00,,2013-06-01 14:42:00,
2013-06-01 07:52:00,52.0,50.0,30.24,ENE,73,0.0,3.0,93,0.00,,,0.00,,2013-06-01 14:52:00,
2013-06-01 08:01:00,52.0,50.0,30.23,ENE,73,0.0,0.0,93,0.00,,,0.00,,2013-06-01 15:01:00,
2013-06-01 08:11:00,52.0,50.0,30.23,ENE,73,0.0,0.0,93,0.00,,,0.00,,2013-06-01 15:11:00,
2013-06-01 08:21:00,53.0,51.0,30.22,South,180,0.0,3.0,93,0.00,,,0.00,,2013-06-01 15:21:00,
2013-06-01 08:33:00,53.0,51.0,30.22,SSW,196,0.0,2.0,92,0.00,,,0.00,,2013-06-01 15:33:00,
2013-06-01 08:43:00,53.0,51.0,30.22,SSW,196,0.0,2.0,92,0.00,,,0.00,,2013-06-01 15:43:00,
2013-06-01 08:53:00,53.0,51.0,30.22,WNW,302,5.0,8.0,92,0.00,,,0.00,,2013-06-01 15:53:00,
2013-06-01 09:03:00,55.0,52.0,30.22,ESE,103,2.0,7.0,90,0.00,,,0.00,,2013-06-01 16:03:00,
2013-06-01 09:12:00,55.0,52.0,30.22,ESE,103,2.0,7.0,90,0.00,,,0.00,,2013-06-01 16:12:00,
2013-06-01 09:23:00,55.0,52.0,30.22,SSW,202,5.0,7.0,90,0.00,,,0.00,,2013-06-01 16:23:00,
2013-06-01 09:33:00,54.0,51.0,30.22,SSW,210,4.0,7.0,90,0.00,,,0.00,,2013-06-01 16:33:00,
2013-06-01 09:42:00,54.0,51.0,30.22,SSW,210,4.0,7.0,90,0.00,,,0.00,,2013-06-01 16:42:00,
2013-06-01 09:52:00,54.0,51.0,30.22,SSW,204,4.0,7.0,91,0.00,,,0.00,,2013-06-01 16:52:00,
2013-06-01 10:02:00,54.0,51.0,30.21,SSW,204,3.0,6.0,91,0.00,,,0.00,,2013-06-01 17:02:00,
2013-06-01 10:11:00,54.0,51.0,30.21,SSW,204,3.0,6.0,91,0.00,,,0.00,,2013-06-01 17:11:00,
2013-06-01 10:22:00,55.0,53.0,30.21,SSW,204,4.0,6.0,92,0.00,,,0.00,,2013-06-01 17:22:00,
2013-06-01 10:32:00,55.0,53.0,30.21,SW,225,6.0,7.0,92,0.00,,,0.00,,2013-06-01 17:32:00,
2013-06-01 10:42:00,55.0,53.0,30.21,SW,225,6.0,7.0,92,0.00,,,0.00,,2013-06-01 17:42:00,
2013-06-01 10:52:00,55.0,52.0,30.21,SW,219,2.0,4.0,91,0.00,,,0.00,,2013-06-01 17:52:00,
2013-06-01 11:01:00,57.0,54.0,30.21,WSW,242,4.0,5.0,91,0.00,,,0.00,,2013-06-01 18:01:00,
2013-06-01 11:11:00,57.0,54.0,30.21,WSW,242,4.0,5.0,91,0.00,,,0.00,,2013-06-01 18:11:00,
2013-06-01 11:21:00,56.0,53.0,30.21,West,265,2.0,5.0,91,0.00,,,0.00,,2013-06-01 18:21:00,
2013-06-01 11:32:00,57.0,54.0,30.21,WNW,284,0.0,3.0,90,0.00,,,0.00,,2013-06-01 18:32:00,
2013-06-01 11:41:00,57.0,54.0,30.21,WNW,284,0.0,3.0,90,0.00,,,0.00,,2013-06-01 18:41:00,
2013-06-01 11:51:00,56.0,53.0,30.19,WNW,289,1.0,4.0,89,0.00,,,0.00,,2013-06-01 18:51:00,
2013-06-01 12:01:00,57.0,54.0,30.19,WNW,294,3.0,5.0,89,0.00,,,0.00,,2013-06-01 19:01:00,
2013-06-01 12:11:00,57.0,54.0,30.19,WNW,294,3.0,5.0,89,0.00,,,0.00,,2013-06-01 19:11:00,
2013-06-01 12:21:00,58.0,55.0,30.19,West,280,2.0,3.0,90,0.00,,,0.00,,2013-06-01 19:21:00,
2013-06-01 12:32:00,59.0,56.0,30.19,WSW,250,2.0,4.0,89,0.00,,,0.00,,2013-06-01 19:32:00,
2013-06-01 12:41:00,59.0,56.0,30.19,WSW,250,2.0,4.0,89,0.00,,,0.00,,2013-06-01 19:41:00,
2013-06-01 12:52:00,59.0,56.0,30.19,West,265,3.0,5.0,89,0.00,,,0.00,,2013-06-01 19:52:00,
2013-06-01 13:01:00,58.0,54.0,30.19,West,270,0.0,3.0,88,0.00,,,0.00,,2013-06-01 20:01:00,
2013-06-01 13:11:00,58.0,54.0,30.19,West,270,0.0,3.0,88,0.00,,,0.00,,2013-06-01 20:11:00,
2013-06-01 13:21:00,57.0,53.0,30.19,NNW,331,3.0,5.0,87,0.00,,,0.00,,2013-06-01 20:21:00,
2013-06-01 13:32:00,57.0,53.0,30.18,NNW,336,4.0,7.0,88,0.00,,,0.00,,2013-06-01 20:32:00,
2013-06-01 13:41:00,57.0,53.0,30.18,NNW,336,4.0,7.0,88,0.00,,,0.00,,2013-06-01 20:41:00,
2013-06-01 13:52:00,57.0,54.0,30.18,NW,322,4.0,6.0,89,0.00,,,0.00,,2013-06-01 20:52:00,
2013-06-01 14:01:00,58.0,55.0,30.18,NW,315,5.0,7.0,89,0.00,,,0.00,,2013-06-01 21:01:00,
2013-06-01 14:11:00,58.0,54.0,30.18,NNW,330,3.0,6.0,88,0.00,,,0.00,,2013-06-01 21:11:00,
2013-06-01 14:21:00,58.0,54.0,30.18,NNW,330,3.0,6.0,88,0.00,,,0.00,,2013-06-01 21:21:00,
2013-06-01 14:33:00,58.0,54.0,30.18,NNW,342,4.0,7.0,88,0.00,,,0.00,,2013-06-01 21:33:00,
2013-06-01 14:42:00,58.0,54.0,30.18,NNW,342,4.0,7.0,88,0.00,,,0.00,,2013-06-01 21:42:00,
2013-06-01 14:53:00,58.0,54.0,30.17,NNW,348,4.0,7.0,87,0.00,,,0.00,,2013-06-01 21:53:00,
2013-06-01 15:03:00,59.0,55.0,30.17,North,350,5.0,8.0,87,0.00,,,0.00,,2013-06-01 22:03:00,
2013-06-01 15:12:00,59.0,55.0,30.17,North,350,5.0,8.0,87,0.00,,,0.00,,2013-06-01 22:12:00,
2013-06-01 15:23:00,60.0,56.0,30.17,NNW,344,6.0,7.0,87,0.00,,,0.00,,2013-06-01 22:23:00,
2013-06-01 15:33:00,60.0,55.0,30.17,NNW,348,6.0,9.0,85,0.00,,,0.00,,2013-06-01 22:33:00,
2013-06-01 15:42:00,60.0,55.0,30.17,NNW,348,6.0,9.0,85,0.00,,,0.00,,2013-06-01 22:42:00,
2013-06-01 15:53:00,60.0,56.0,30.16,NNW,347,6.0,8.0,86,0.00,,,0.00,,2013-06-01 22:53:00,
2013-06-01 16:02:00,60.0,55.0,30.16,North,356,6.0,8.0,85,0.00,,,0.00,,2013-06-01 23:02:00,
2013-06-01 16:11:00,60.0,55.0,30.16,North,356,6.0,8.0,85,0.00,,,0.00,,2013-06-01 23:11:00,
2013-06-01 16:21:00,60.0,55.0,30.16,North,356,7.0,9.0,85,0.00,,,0.00,,2013-06-01 23:21:00,
2013-06-01 16:32:00,60.0,55.0,30.15,NNW,345,8.0,9.0,84,0.00,,,0.00,,2013-06-01 23:32:00,
2013-06-01 16:42:00,60.0,55.0,30.15,NNW,345,8.0,9.0,84,0.00,,,0.00,,2013-06-01 23:42:00,
2013-06-01 16:52:00,60.0,55.0,30.15,North,350,8.0,10.0,83,0.00,,,0.00,,2013-06-01 23:52:00,
2013-06-01 17:02:00,60.0,55.0,30.14,North,352,7.0,10.0,84,0.00,,,0.00,,2013-06-02 00:02:00,
2013-06-01 17:11:00,60.0,55.0,30.14,North,352,7.0,10.0,84,0.00,,,0.00,,2013-06-02 00:11:00,
2013-06-01 17:21:00,60.0,55.0,30.14,North,354,8.0,10.0,84,0.00,,,0.00,,2013-06-02 00:21:00,
2013-06-01 17:32:00,60.0,55.0,30.14,NNW,341,8.0,11.0,83,0.00,,,0.00,,2013-06-02 00:32:00,
2013-06-01 17:41:00,60.0,55.0,30.14,NNW,341,8.0,11.0,83,0.00,,,0.00,,2013-06-02 00:41:00,
2013-06-01 17:51:00,60.0,55.0,30.13,NNW,341,8.0,10.0,83,0.00,,,0.00,,2013-06-02 00:51:00,
2013-06-01 18:01:00,60.0,54.0,30.13,NNW,344,7.0,10.0,82,0.00,,,0.00,,2013-06-02 01:01:00,
2013-06-01 18:11:00,60.0,54.0,30.13,NNW,344,7.0,10.0,82,0.00,,,0.00,,2013-06-02 01:11:00,
2013-06-01 18:21:00,60.0,54.0,30.12,North,360,9.0,11.0,82,0.00,,,0.00,,2013-06-02 01:21:00,
2013-06-01 18:32:00,60.0,54.0,30.12,North,358,9.0,11.0,81,0.00,,,0.00,,2013-06-02 01:32:00,
2013-06-01 18:41:00,60.0,54.0,30.12,North,358,9.0,11.0,81,0.00,,,0.00,,2013-06-02 01:41:00,
2013-06-01 18:52:00,59.0,53.0,30.11,North,356,8.0,10.0,80,0.00,,,0.00,,2013-06-02 01:52:00,
2013-06-01 19:01:00,58.0,53.0,30.11,North,360,6.0,9.0,82,0.00,,,0.00,,2013-06-02 02:01:00,
2013-06-01 19:12:00,58.0,53.0,30.11,North,360,6.0,9.0,82,0.00,,,0.00,,2013-06-02 02:12:00,
2013-06-01 19:21:00,58.0,53.0,30.11,North,358,6.0,8.0,82,0.00,,,0.00,,2013-06-02 02:21:00,
2013-06-01 19:32:00,58.0,53.0,30.11,NNW,348,6.0,8.0,84,0.00,,,0.00,,2013-06-02 02:32:00,
2013-06-01 19:41:00,58.0,53.0,30.11,NNW,348,6.0,8.0,84,0.00,,,0.00,,2013-06-02 02:41:00,
2013-06-01 19:51:00,57.0,52.0,30.11,North,351,6.0,9.0,84,0.00,,,0.00,,2013-06-02 02:51:00,
2013-06-01 20:02:00,57.0,52.0,30.11,NNW,346,7.0,9.0,84,0.00,,,0.00,,2013-06-02 03:02:00,
2013-06-01 20:11:00,57.0,52.0,30.11,NNW,346,7.0,9.0,84,0.00,,,0.00,,2013-06-02 03:11:00,
2013-06-01 20:21:00,57.0,52.0,30.10,North,351,7.0,9.0,84,0.00,,,0.00,,2013-06-02 03:21:00,
2013-06-01 20:33:00,57.0,52.0,30.10,North,356,6.0,9.0,84,0.00,,,0.00,,2013-06-02 03:33:00,
2013-06-01 20:43:00,57.0,52.0,30.10,North,356,6.0,9.0,84,0.00,,,0.00,,2013-06-02 03:43:00,
2013-06-01 20:52:00,56.0,51.0,30.10,NNW,346,6.0,8.0,84,0.00,,,0.00,,2013-06-02 03:52:00,
2013-06-01 21:02:00,56.0,51.0,30.10,NNW,348,6.0,8.0,83,0.00,,,0.00,,2013-06-02 04:02:00,
2013-06-01 21:13:00,56.0,51.0,30.10,NNW,348,6.0,8.0,83,0.00,,,0.00,,2013-06-02 04:13:00,
2013-06-01 21:23:00,56.0,51.0,30.10,North,351,6.0,9.0,83,0.00,,,0.00,,2013-06-02 04:23:00,
2013-06-01 21:33:00,56.0,51.0,30.10,North,350,6.0,9.0,84,0.00,,,0.00,,2013-06-02 04:33:00,
2013-06-01 21:42:00,56.0,51.0,30.10,North,350,6.0,9.0,84,0.00,,,0.00,,2013-06-02 04:42:00,
2013-06-01 21:52:00,56.0,52.0,30.11,North,7,8.0,11.0,85,0.00,,,0.00,,2013-06-02 04:52:00,
2013-06-01 22:02:00,56.0,52.0,30.11,North,355,9.0,13.0,86,0.00,,,0.00,,2013-06-02 05:02:00,
2013-06-01 22:11:00,56.0,52.0,30.11,North,355,9.0,13.0,86,0.00,,,0.00,,2013-06-02 05:11:00,
2013-06-01 22:22:00,55.0,52.0,30.11,North,2,8.0,10.0,88,0.00,,,0.00,,2013-06-02 05:22:00,
2013-06-01 22:32:00,55.0,52.0,30.11,NNE,15,7.0,9.0,89,0.00,,,0.00,,2013-06-02 05:32:00,
2013-06-01 22:42:00,55.0,52.0,30.11,NNE,15,7.0,9.0,89,0.00,,,0.00,,2013-06-02 05:42:00,
2013-06-01 22:52:00,55.0,52.0,30.11,NNE,28,3.0,9.0,90,0.00,,,0.00,,2013-06-02 05:52:00,
2013-06-01 23:01:00,54.0,51.0,30.11,NNE,23,1.0,6.0,91,0.00,,,0.00,,2013-06-02 06:01:00,
2013-06-01 23:12:00,54.0,51.0,30.11,NNE,23,1.0,6.0,91,0.00,,,0.00,,2013-06-02 06:12:00,
2013-06-01 23:21:00,54.0,51.0,30.11,North,8,1.0,7.0,91,0.00,,,0.00,,2013-06-02 06:21:00,
2013-06-01 23:32:00,54.0,52.0,30.11,NNE,13,2.0,8.0,92,0.00,,,0.00,,2013-06-02 06:32:00,
2013-06-01 23:41:00,54.0,52.0,30.11,NNE,13,2.0,8.0,92,0.00,,,0.00,,2013-06-02 06:41:00,
2013-06-01 23:52:00,54.0,52.0,30.10,NNE,18,0.0,4.0,92,0.00,,,0.00,,2013-06-02 06:52:00,